sensor_id;sensor_type;location;lat;lon;timestamp;pressure;altitude;pressure_sealevel;temperature;humidity
12801;BME280;6464;42.494;27.470;2023-06-22T04:13:51;100009.34;;;20.77;100.00
12801;BME280;6464;42.494;27.470;2023-06-22T04:16:47;99993.09;;;20.55;100.00
12801;BME280;6464;42.494;27.470;2023-06-22T04:28:44;100053.63;;;21.07;100.00
12801;BME280;6464;42.494;27.470;2023-06-22T04:31:32;100040.16;;;20.96;100.00
12801;BME280;6464;42.494;27.470;2023-06-22T04:34:03;100016.88;;;21.09;100.00
12801;BME280;6464;42.494;27.470;2023-06-22T04:40:18;100058.97;;;21.20;100.00
12801;BME280;6464;42.494;27.470;2023-06-22T04:53:01;100080.94;;;21.25;100.00
12801;BME280;6464;42.494;27.470;2023-06-22T04:59:06;100125.06;;;21.34;100.00
12801;BME280;6464;42.494;27.470;2023-06-22T05:01:54;100116.56;;;21.40;100.00
12801;BME280;6464;42.494;27.470;2023-06-22T05:04:37;100141.88;;;21.72;100.00
12801;BME280;6464;42.494;27.470;2023-06-22T05:07:05;100132.38;;;21.79;100.00
12801;BME280;6464;42.494;27.470;2023-06-22T05:09:33;100143.97;;;21.80;100.00
12801;BME280;6464;42.494;27.470;2023-06-22T05:12:02;100070.06;;;21.52;100.00
12801;BME280;6464;42.494;27.470;2023-06-22T05:14:30;100098.72;;;22.11;100.00
12801;BME280;6464;42.494;27.470;2023-06-22T05:16:57;100096.16;;;22.09;100.00
12801;BME280;6464;42.494;27.470;2023-06-22T05:19:29;100080.41;;;22.40;100.00
12801;BME280;6464;42.494;27.470;2023-06-22T05:21:58;100038.41;;;22.39;100.00
12801;BME280;6464;42.494;27.470;2023-06-22T05:24:25;100105.13;;;22.78;100.00
12801;BME280;6464;42.494;27.470;2023-06-22T05:26:53;100149.34;;;22.63;100.00
12801;BME280;6464;42.494;27.470;2023-06-22T05:29:21;100173.78;;;22.71;100.00
12801;BME280;6464;42.494;27.470;2023-06-22T05:31:48;100135.63;;;22.44;100.00
12801;BME280;6464;42.494;27.470;2023-06-22T05:34:15;100207.09;;;22.93;100.00
12801;BME280;6464;42.494;27.470;2023-06-22T05:36:42;100213.56;;;23.01;100.00
12801;BME280;6464;42.494;27.470;2023-06-22T05:39:13;100243.53;;;23.19;100.00
12801;BME280;6464;42.494;27.470;2023-06-22T05:41:40;100253.47;;;23.41;100.00
12801;BME280;6464;42.494;27.470;2023-06-22T05:44:10;100287.34;;;23.32;100.00
12801;BME280;6464;42.494;27.470;2023-06-22T05:46:37;100262.16;;;23.33;100.00
12801;BME280;6464;42.494;27.470;2023-06-22T05:49:04;100267.75;;;23.30;100.00
12801;BME280;6464;42.494;27.470;2023-06-22T05:51:31;100258.88;;;23.64;100.00
12801;BME280;6464;42.494;27.470;2023-06-22T05:53:58;100174.31;;;22.88;100.00
12801;BME280;6464;42.494;27.470;2023-06-22T05:56:25;100063.31;;;22.41;100.00
12801;BME280;6464;42.494;27.470;2023-06-22T05:58:52;100245.53;;;23.84;100.00
12801;BME280;6464;42.494;27.470;2023-06-22T06:01:20;100127.09;;;22.72;100.00
12801;BME280;6464;42.494;27.470;2023-06-22T06:03:47;100272.66;;;23.59;100.00
12801;BME280;6464;42.494;27.470;2023-06-22T06:06:15;100269.13;;;23.58;100.00
12801;BME280;6464;42.494;27.470;2023-06-22T06:08:42;100255.44;;;23.95;100.00
12801;BME280;6464;42.494;27.470;2023-06-22T06:11:09;100297.13;;;24.23;100.00
12801;BME280;6464;42.494;27.470;2023-06-22T06:13:36;100316.75;;;23.92;100.00
12801;BME280;6464;42.494;27.470;2023-06-22T06:16:03;100265.50;;;23.71;100.00
12801;BME280;6464;42.494;27.470;2023-06-22T06:18:31;100211.50;;;23.61;100.00
12801;BME280;6464;42.494;27.470;2023-06-22T06:20:58;100224.56;;;23.88;100.00
12801;BME280;6464;42.494;27.470;2023-06-22T06:23:25;100226.97;;;23.70;100.00
12801;BME280;6464;42.494;27.470;2023-06-22T06:25:52;100303.84;;;24.29;100.00
12801;BME280;6464;42.494;27.470;2023-06-22T06:28:19;100250.41;;;23.91;100.00
12801;BME280;6464;42.494;27.470;2023-06-22T06:30:46;100334.25;;;24.42;100.00
12801;BME280;6464;42.494;27.470;2023-06-22T06:33:13;100280.22;;;24.32;100.00
12801;BME280;6464;42.494;27.470;2023-06-22T06:35:42;100395.34;;;24.96;100.00
12801;BME280;6464;42.494;27.470;2023-06-22T06:38:09;100417.22;;;25.14;100.00
12801;BME280;6464;42.494;27.470;2023-06-22T06:40:36;100365.13;;;24.81;100.00
12801;BME280;6464;42.494;27.470;2023-06-22T06:43:03;100507.53;;;25.42;100.00
12801;BME280;6464;42.494;27.470;2023-06-22T06:45:30;100503.59;;;25.03;100.00
12801;BME280;6464;42.494;27.470;2023-06-22T06:47:58;100540.47;;;25.68;100.00
12801;BME280;6464;42.494;27.470;2023-06-22T06:50:25;100587.56;;;26.07;100.00
12801;BME280;6464;42.494;27.470;2023-06-22T06:52:53;100595.72;;;26.38;100.00
12801;BME280;6464;42.494;27.470;2023-06-22T06:55:21;100605.28;;;26.63;100.00
12801;BME280;6464;42.494;27.470;2023-06-22T06:57:50;100588.63;;;26.88;100.00
12801;BME280;6464;42.494;27.470;2023-06-22T07:00:18;100551.41;;;26.81;100.00
12801;BME280;6464;42.494;27.470;2023-06-22T07:02:45;100528.38;;;26.46;100.00
12801;BME280;6464;42.494;27.470;2023-06-22T07:05:13;100535.34;;;26.49;100.00
12801;BME280;6464;42.494;27.470;2023-06-22T07:07:41;100575.06;;;27.19;100.00
12801;BME280;6464;42.494;27.470;2023-06-22T07:10:10;100619.53;;;27.26;100.00
12801;BME280;6464;42.494;27.470;2023-06-22T07:12:37;100606.13;;;27.15;100.00
12801;BME280;6464;42.494;27.470;2023-06-22T07:15:05;100621.59;;;27.44;100.00
12801;BME280;6464;42.494;27.470;2023-06-22T07:17:33;100606.38;;;27.62;100.00
12801;BME280;6464;42.494;27.470;2023-06-22T07:20:00;100640.50;;;27.93;100.00
12801;BME280;6464;42.494;27.470;2023-06-22T07:22:27;100663.03;;;28.13;100.00
12801;BME280;6464;42.494;27.470;2023-06-22T07:24:54;100709.88;;;28.35;100.00
12801;BME280;6464;42.494;27.470;2023-06-22T07:27:23;100683.44;;;28.47;100.00
12801;BME280;6464;42.494;27.470;2023-06-22T07:29:50;100763.25;;;28.83;100.00
12801;BME280;6464;42.494;27.470;2023-06-22T07:32:17;100801.53;;;28.89;100.00
12801;BME280;6464;42.494;27.470;2023-06-22T07:34:43;100759.28;;;28.48;100.00
12801;BME280;6464;42.494;27.470;2023-06-22T07:37:10;100783.13;;;28.64;100.00
12801;BME280;6464;42.494;27.470;2023-06-22T07:39:37;100852.81;;;28.83;100.00
12801;BME280;6464;42.494;27.470;2023-06-22T07:42:05;100842.41;;;29.07;100.00
12801;BME280;6464;42.494;27.470;2023-06-22T07:44:33;100854.38;;;28.85;100.00
12801;BME280;6464;42.494;27.470;2023-06-22T07:47:00;100893.81;;;28.70;100.00
12801;BME280;6464;42.494;27.470;2023-06-22T07:49:28;100886.41;;;28.72;100.00
12801;BME280;6464;42.494;27.470;2023-06-22T07:51:55;100918.13;;;29.01;100.00
12801;BME280;6464;42.494;27.470;2023-06-22T07:54:22;100931.72;;;29.01;100.00
12801;BME280;6464;42.494;27.470;2023-06-22T07:56:48;100909.94;;;28.81;100.00
12801;BME280;6464;42.494;27.470;2023-06-22T07:59:15;100873.25;;;28.67;100.00
12801;BME280;6464;42.494;27.470;2023-06-22T08:01:44;100895.25;;;28.14;100.00
12801;BME280;6464;42.494;27.470;2023-06-22T08:04:10;100852.50;;;27.97;100.00
12801;BME280;6464;42.494;27.470;2023-06-22T08:06:37;100696.41;;;27.45;100.00
12801;BME280;6464;42.494;27.470;2023-06-22T08:09:04;100703.41;;;27.97;100.00
12801;BME280;6464;42.494;27.470;2023-06-22T08:11:31;100725.69;;;28.01;100.00
12801;BME280;6464;42.494;27.470;2023-06-22T08:13:59;100621.38;;;27.76;100.00
12801;BME280;6464;42.494;27.470;2023-06-22T08:16:26;100654.63;;;28.07;100.00
12801;BME280;6464;42.494;27.470;2023-06-22T08:18:54;100676.47;;;27.96;100.00
12801;BME280;6464;42.494;27.470;2023-06-22T08:21:21;100646.75;;;28.33;100.00
12801;BME280;6464;42.494;27.470;2023-06-22T08:23:48;100638.94;;;27.81;100.00
12801;BME280;6464;42.494;27.470;2023-06-22T08:26:15;100638.63;;;28.04;100.00
12801;BME280;6464;42.494;27.470;2023-06-22T08:28:42;100788.59;;;28.14;100.00
12801;BME280;6464;42.494;27.470;2023-06-22T08:31:09;100791.84;;;28.67;100.00
12801;BME280;6464;42.494;27.470;2023-06-22T08:33:39;100919.56;;;29.14;100.00
12801;BME280;6464;42.494;27.470;2023-06-22T08:36:07;100903.81;;;29.57;100.00
12801;BME280;6464;42.494;27.470;2023-06-22T08:38:36;100800.97;;;28.96;100.00
12801;BME280;6464;42.494;27.470;2023-06-22T08:41:03;100733.84;;;28.68;100.00
12801;BME280;6464;42.494;27.470;2023-06-22T08:43:30;100738.41;;;28.20;100.00
12801;BME280;6464;42.494;27.470;2023-06-22T08:45:57;100673.31;;;28.29;100.00
12801;BME280;6464;42.494;27.470;2023-06-22T08:48:24;100649.03;;;28.18;100.00
12801;BME280;6464;42.494;27.470;2023-06-22T08:50:51;100739.72;;;28.45;100.00
12801;BME280;6464;42.494;27.470;2023-06-22T08:53:19;100780.25;;;28.56;100.00
12801;BME280;6464;42.494;27.470;2023-06-22T08:55:46;100836.97;;;28.78;100.00
12801;BME280;6464;42.494;27.470;2023-06-22T08:58:13;100830.28;;;29.02;100.00
12801;BME280;6464;42.494;27.470;2023-06-22T09:00:40;100776.94;;;28.91;100.00
12801;BME280;6464;42.494;27.470;2023-06-22T09:03:07;100752.41;;;28.73;100.00
12801;BME280;6464;42.494;27.470;2023-06-22T09:05:33;100769.41;;;28.56;100.00
12801;BME280;6464;42.494;27.470;2023-06-22T09:08:00;100669.03;;;28.46;100.00
12801;BME280;6464;42.494;27.470;2023-06-22T09:10:29;100733.25;;;28.84;100.00
12801;BME280;6464;42.494;27.470;2023-06-22T09:12:56;100752.09;;;28.76;100.00
12801;BME280;6464;42.494;27.470;2023-06-22T09:15:23;100747.63;;;29.14;100.00
12801;BME280;6464;42.494;27.470;2023-06-22T09:17:50;100752.38;;;28.92;100.00
12801;BME280;6464;42.494;27.470;2023-06-22T09:20:19;100627.63;;;28.54;100.00
12801;BME280;6464;42.494;27.470;2023-06-22T09:22:47;100752.78;;;29.44;100.00
12801;BME280;6464;42.494;27.470;2023-06-22T09:25:14;100782.69;;;29.82;100.00
12801;BME280;6464;42.494;27.470;2023-06-22T09:27:42;100776.97;;;29.85;100.00
12801;BME280;6464;42.494;27.470;2023-06-22T09:30:09;100781.81;;;30.09;100.00
12801;BME280;6464;42.494;27.470;2023-06-22T09:32:36;100796.56;;;30.06;100.00
12801;BME280;6464;42.494;27.470;2023-06-22T09:35:05;100633.84;;;29.21;100.00
12801;BME280;6464;42.494;27.470;2023-06-22T09:37:33;100645.75;;;29.65;100.00
12801;BME280;6464;42.494;27.470;2023-06-22T09:40:00;100719.81;;;30.12;100.00
12801;BME280;6464;42.494;27.470;2023-06-22T09:42:32;100796.75;;;31.12;100.00
12801;BME280;6464;42.494;27.470;2023-06-22T09:45:01;100933.97;;;31.98;100.00
12801;BME280;6464;42.494;27.470;2023-06-22T09:47:28;101026.00;;;32.40;100.00
12801;BME280;6464;42.494;27.470;2023-06-22T09:49:55;101038.81;;;32.48;100.00
12801;BME280;6464;42.494;27.470;2023-06-22T09:52:25;100787.63;;;31.21;100.00
12801;BME280;6464;42.494;27.470;2023-06-22T09:54:52;100741.88;;;31.33;100.00
12801;BME280;6464;42.494;27.470;2023-06-22T09:57:19;100869.41;;;32.58;100.00
12801;BME280;6464;42.494;27.470;2023-06-22T09:59:45;101287.47;;;34.68;100.00
12801;BME280;6464;42.494;27.470;2023-06-22T10:02:14;101456.38;;;35.50;100.00
12801;BME280;6464;42.494;27.470;2023-06-22T10:04:41;101624.63;;;36.72;100.00
12801;BME280;6464;42.494;27.470;2023-06-22T10:07:08;101338.66;;;35.08;100.00
12801;BME280;6464;42.494;27.470;2023-06-22T10:09:35;101566.38;;;36.21;100.00
12801;BME280;6464;42.494;27.470;2023-06-22T10:12:02;101147.41;;;33.81;100.00
12801;BME280;6464;42.494;27.470;2023-06-22T10:14:29;101070.47;;;33.76;100.00
12801;BME280;6464;42.494;27.470;2023-06-22T10:16:56;101389.16;;;34.81;100.00
12801;BME280;6464;42.494;27.470;2023-06-22T10:19:24;101291.06;;;33.93;100.00
12801;BME280;6464;42.494;27.470;2023-06-22T10:21:51;101262.19;;;33.48;100.00
12801;BME280;6464;42.494;27.470;2023-06-22T10:24:18;101538.69;;;34.84;100.00
12801;BME280;6464;42.494;27.470;2023-06-22T10:26:45;101542.97;;;34.86;100.00
12801;BME280;6464;42.494;27.470;2023-06-22T10:29:12;101330.41;;;34.51;100.00
12801;BME280;6464;42.494;27.470;2023-06-22T10:31:39;101185.13;;;33.53;100.00
12801;BME280;6464;42.494;27.470;2023-06-22T10:34:06;101154.59;;;33.82;100.00
12801;BME280;6464;42.494;27.470;2023-06-22T10:36:34;101339.72;;;34.08;100.00
12801;BME280;6464;42.494;27.470;2023-06-22T10:39:01;101174.03;;;33.55;100.00
12801;BME280;6464;42.494;27.470;2023-06-22T10:41:28;101511.56;;;35.72;100.00
12801;BME280;6464;42.494;27.470;2023-06-22T10:43:56;101372.81;;;33.36;100.00
12801;BME280;6464;42.494;27.470;2023-06-22T10:46:24;101332.63;;;33.46;100.00
12801;BME280;6464;42.494;27.470;2023-06-22T10:48:51;101196.16;;;33.35;100.00
12801;BME280;6464;42.494;27.470;2023-06-22T10:51:20;101106.59;;;32.53;100.00
12801;BME280;6464;42.494;27.470;2023-06-22T10:53:48;101064.22;;;32.83;100.00
12801;BME280;6464;42.494;27.470;2023-06-22T10:56:16;101363.84;;;34.87;100.00
12801;BME280;6464;42.494;27.470;2023-06-22T10:58:44;101560.09;;;36.60;100.00
12801;BME280;6464;42.494;27.470;2023-06-22T11:01:11;101672.44;;;36.38;100.00
12801;BME280;6464;42.494;27.470;2023-06-22T11:03:38;101754.16;;;36.69;100.00
12801;BME280;6464;42.494;27.470;2023-06-22T11:06:06;101808.38;;;35.93;100.00
12801;BME280;6464;42.494;27.470;2023-06-22T11:08:33;101823.59;;;35.88;100.00
12801;BME280;6464;42.494;27.470;2023-06-22T11:11:01;101796.94;;;34.95;100.00
12801;BME280;6464;42.494;27.470;2023-06-22T11:13:28;101735.59;;;35.31;100.00
12801;BME280;6464;42.494;27.470;2023-06-22T11:15:55;101814.53;;;35.11;100.00
12801;BME280;6464;42.494;27.470;2023-06-22T11:18:22;101727.72;;;35.44;100.00
12801;BME280;6464;42.494;27.470;2023-06-22T11:20:49;101669.19;;;34.24;100.00
12801;BME280;6464;42.494;27.470;2023-06-22T11:23:16;101779.25;;;36.25;100.00
12801;BME280;6464;42.494;27.470;2023-06-22T11:25:43;101750.41;;;36.29;100.00
12801;BME280;6464;42.494;27.470;2023-06-22T11:28:13;101794.16;;;37.04;100.00
12801;BME280;6464;42.494;27.470;2023-06-22T11:30:40;101772.38;;;36.70;100.00
12801;BME280;6464;42.494;27.470;2023-06-22T11:33:07;101803.16;;;36.57;100.00
12801;BME280;6464;42.494;27.470;2023-06-22T11:35:33;101791.88;;;37.16;100.00
12801;BME280;6464;42.494;27.470;2023-06-22T11:38:00;101854.41;;;38.17;100.00
12801;BME280;6464;42.494;27.470;2023-06-22T11:40:28;101913.66;;;38.67;100.00
12801;BME280;6464;42.494;27.470;2023-06-22T11:42:55;101860.88;;;38.24;100.00
12801;BME280;6464;42.494;27.470;2023-06-22T11:45:24;101873.94;;;38.07;100.00
12801;BME280;6464;42.494;27.470;2023-06-22T11:47:51;101787.75;;;37.20;100.00
12801;BME280;6464;42.494;27.470;2023-06-22T11:50:18;101771.00;;;36.33;100.00
12801;BME280;6464;42.494;27.470;2023-06-22T11:52:45;101695.28;;;35.73;100.00
12801;BME280;6464;42.494;27.470;2023-06-22T11:55:12;101850.53;;;37.72;100.00
12801;BME280;6464;42.494;27.470;2023-06-22T11:57:53;101850.72;;;38.24;100.00
12801;BME280;6464;42.494;27.470;2023-06-22T12:00:20;101956.00;;;38.97;100.00
12801;BME280;6464;42.494;27.470;2023-06-22T12:02:51;101733.88;;;36.70;100.00
12801;BME280;6464;42.494;27.470;2023-06-22T12:05:19;101623.06;;;35.65;100.00
12801;BME280;6464;42.494;27.470;2023-06-22T12:07:46;101672.66;;;36.04;100.00
12801;BME280;6464;42.494;27.470;2023-06-22T12:10:13;101645.94;;;35.31;100.00
12801;BME280;6464;42.494;27.470;2023-06-22T12:12:40;101602.47;;;35.61;100.00
12801;BME280;6464;42.494;27.470;2023-06-22T12:15:09;101441.56;;;34.86;100.00
12801;BME280;6464;42.494;27.470;2023-06-22T12:17:36;101371.47;;;35.65;100.00
12801;BME280;6464;42.494;27.470;2023-06-22T12:20:06;101612.25;;;36.76;100.00
12801;BME280;6464;42.494;27.470;2023-06-22T12:22:33;101726.72;;;36.44;100.00
12801;BME280;6464;42.494;27.470;2023-06-22T12:25:00;101727.72;;;36.60;100.00
12801;BME280;6464;42.494;27.470;2023-06-22T12:27:27;101803.84;;;37.31;100.00
12801;BME280;6464;42.494;27.470;2023-06-22T12:29:56;101746.84;;;37.09;100.00
12801;BME280;6464;42.494;27.470;2023-06-22T12:32:23;101840.03;;;38.52;100.00
12801;BME280;6464;42.494;27.470;2023-06-22T12:34:51;101765.09;;;37.10;100.00
12801;BME280;6464;42.494;27.470;2023-06-22T12:37:19;101803.03;;;37.22;100.00
12801;BME280;6464;42.494;27.470;2023-06-22T12:39:46;101831.03;;;37.26;100.00
12801;BME280;6464;42.494;27.470;2023-06-22T12:42:13;101695.63;;;35.78;100.00
12801;BME280;6464;42.494;27.470;2023-06-22T12:44:40;101602.09;;;35.47;100.00
12801;BME280;6464;42.494;27.470;2023-06-22T12:47:07;101440.00;;;34.59;100.00
12801;BME280;6464;42.494;27.470;2023-06-22T12:49:34;101537.06;;;35.07;100.00
12801;BME280;6464;42.494;27.470;2023-06-22T12:52:01;101754.44;;;37.07;100.00
12801;BME280;6464;42.494;27.470;2023-06-22T12:54:30;101836.47;;;37.59;100.00
12801;BME280;6464;42.494;27.470;2023-06-22T12:56:57;101896.34;;;38.35;100.00
12801;BME280;6464;42.494;27.470;2023-06-22T12:59:23;101867.72;;;36.69;100.00
12801;BME280;6464;42.494;27.470;2023-06-22T13:01:50;101825.25;;;36.39;100.00
12801;BME280;6464;42.494;27.470;2023-06-22T13:04:17;101636.66;;;35.16;100.00
12801;BME280;6464;42.494;27.470;2023-06-22T13:06:45;101732.59;;;35.58;100.00
12801;BME280;6464;42.494;27.470;2023-06-22T13:09:13;101674.13;;;35.58;100.00
12801;BME280;6464;42.494;27.470;2023-06-22T13:11:42;101671.25;;;35.59;100.00
12801;BME280;6464;42.494;27.470;2023-06-22T13:14:09;101643.19;;;35.39;100.00
12801;BME280;6464;42.494;27.470;2023-06-22T13:16:36;101730.72;;;35.59;100.00
12801;BME280;6464;42.494;27.470;2023-06-22T13:19:04;101796.59;;;36.17;100.00
12801;BME280;6464;42.494;27.470;2023-06-22T13:21:30;101847.91;;;37.23;100.00
12801;BME280;6464;42.494;27.470;2023-06-22T13:23:59;101807.34;;;37.09;100.00
12801;BME280;6464;42.494;27.470;2023-06-22T13:26:26;101871.94;;;37.93;100.00
12801;BME280;6464;42.494;27.470;2023-06-22T13:28:55;101859.00;;;38.01;100.00
12801;BME280;6464;42.494;27.470;2023-06-22T13:31:22;101808.09;;;36.70;100.00
12801;BME280;6464;42.494;27.470;2023-06-22T13:33:49;101825.09;;;36.98;100.00
12801;BME280;6464;42.494;27.470;2023-06-22T13:36:18;101740.28;;;36.54;100.00
12801;BME280;6464;42.494;27.470;2023-06-22T13:38:45;101801.72;;;37.02;100.00
12801;BME280;6464;42.494;27.470;2023-06-22T13:41:12;101791.78;;;36.60;100.00
12801;BME280;6464;42.494;27.470;2023-06-22T13:43:39;101748.00;;;36.10;100.00
12801;BME280;6464;42.494;27.470;2023-06-22T13:46:08;101849.06;;;37.53;100.00
12801;BME280;6464;42.494;27.470;2023-06-22T13:48:35;101841.75;;;37.68;100.00
12801;BME280;6464;42.494;27.470;2023-06-22T13:51:02;101947.72;;;38.51;100.00
12801;BME280;6464;42.494;27.470;2023-06-22T13:53:29;101915.84;;;38.48;100.00
12801;BME280;6464;42.494;27.470;2023-06-22T13:55:56;101917.66;;;38.64;100.00
12801;BME280;6464;42.494;27.470;2023-06-22T13:58:23;101921.16;;;38.81;100.00
12801;BME280;6464;42.494;27.470;2023-06-22T14:00:49;101837.06;;;38.08;100.00
12801;BME280;6464;42.494;27.470;2023-06-22T14:03:18;101759.94;;;37.07;100.00
12801;BME280;6464;42.494;27.470;2023-06-22T14:05:45;101800.53;;;37.91;100.00
12801;BME280;6464;42.494;27.470;2023-06-22T14:08:12;101888.19;;;38.65;100.00
12801;BME280;6464;42.494;27.470;2023-06-22T14:10:40;101915.13;;;39.53;100.00
12801;BME280;6464;42.494;27.470;2023-06-22T14:13:07;101947.06;;;40.72;100.00
12801;BME280;6464;42.494;27.470;2023-06-22T14:15:34;101903.44;;;39.66;100.00
12801;BME280;6464;42.494;27.470;2023-06-22T14:18:01;101838.22;;;38.14;100.00
12801;BME280;6464;42.494;27.470;2023-06-22T14:20:29;101766.13;;;37.87;100.00
12801;BME280;6464;42.494;27.470;2023-06-22T14:22:56;101778.78;;;38.19;100.00
12801;BME280;6464;42.494;27.470;2023-06-22T14:25:23;101863.44;;;39.32;100.00
12801;BME280;6464;42.494;27.470;2023-06-22T14:27:50;101879.63;;;38.97;100.00
12801;BME280;6464;42.494;27.470;2023-06-22T14:30:17;101845.34;;;38.77;100.00
12801;BME280;6464;42.494;27.470;2023-06-22T14:32:44;101906.84;;;39.38;100.00
12801;BME280;6464;42.494;27.470;2023-06-22T14:35:11;101898.06;;;39.35;100.00
12801;BME280;6464;42.494;27.470;2023-06-22T14:37:39;101900.06;;;39.26;100.00
12801;BME280;6464;42.494;27.470;2023-06-22T14:40:07;101874.94;;;39.21;100.00
12801;BME280;6464;42.494;27.470;2023-06-22T14:42:34;101776.81;;;38.05;100.00
12801;BME280;6464;42.494;27.470;2023-06-22T14:45:02;101558.78;;;36.39;100.00
12801;BME280;6464;42.494;27.470;2023-06-22T14:47:29;101324.09;;;35.16;100.00
12801;BME280;6464;42.494;27.470;2023-06-22T14:49:56;101410.50;;;35.84;100.00
12801;BME280;6464;42.494;27.470;2023-06-22T14:52:24;101312.28;;;35.07;100.00
12801;BME280;6464;42.494;27.470;2023-06-22T14:54:53;101218.75;;;34.86;100.00
12801;BME280;6464;42.494;27.470;2023-06-22T14:57:19;101196.22;;;35.15;100.00
12801;BME280;6464;42.494;27.470;2023-06-22T14:59:48;101119.72;;;34.33;100.00
12801;BME280;6464;42.494;27.470;2023-06-22T15:02:15;100981.22;;;33.50;100.00
12801;BME280;6464;42.494;27.470;2023-06-22T15:04:42;100868.06;;;32.86;100.00
12801;BME280;6464;42.494;27.470;2023-06-22T15:07:09;100686.94;;;32.04;100.00
12801;BME280;6464;42.494;27.470;2023-06-22T15:09:36;100728.03;;;33.17;100.00
12801;BME280;6464;42.494;27.470;2023-06-22T15:12:09;100820.09;;;33.96;100.00
12801;BME280;6464;42.494;27.470;2023-06-22T15:14:37;101008.63;;;35.40;100.00
12801;BME280;6464;42.494;27.470;2023-06-22T15:17:05;101174.13;;;36.10;100.00
12801;BME280;6464;42.494;27.470;2023-06-22T15:19:34;101201.63;;;36.01;100.00
12801;BME280;6464;42.494;27.470;2023-06-22T15:22:02;101118.09;;;35.73;100.00
12801;BME280;6464;42.494;27.470;2023-06-22T15:24:29;101149.84;;;35.98;100.00
12801;BME280;6464;42.494;27.470;2023-06-22T15:26:56;101135.41;;;36.19;100.00
12801;BME280;6464;42.494;27.470;2023-06-22T15:29:24;101046.56;;;35.60;100.00
12801;BME280;6464;42.494;27.470;2023-06-22T15:31:51;100876.50;;;34.99;100.00
12801;BME280;6464;42.494;27.470;2023-06-22T15:34:18;100899.22;;;35.08;100.00
12801;BME280;6464;42.494;27.470;2023-06-22T15:36:45;100908.25;;;35.31;100.00
12801;BME280;6464;42.494;27.470;2023-06-22T15:39:12;100985.44;;;35.66;100.00
12801;BME280;6464;42.494;27.470;2023-06-22T15:41:39;101016.28;;;35.68;100.00
12801;BME280;6464;42.494;27.470;2023-06-22T15:44:07;100904.78;;;34.91;100.00
12801;BME280;6464;42.494;27.470;2023-06-22T15:46:35;100887.72;;;34.81;100.00
12801;BME280;6464;42.494;27.470;2023-06-22T15:49:02;100714.31;;;33.81;100.00
12801;BME280;6464;42.494;27.470;2023-06-22T15:51:29;100468.38;;;32.63;100.00
12801;BME280;6464;42.494;27.470;2023-06-22T15:53:56;100236.66;;;31.11;100.00
12801;BME280;6464;42.494;27.470;2023-06-22T15:56:23;100312.28;;;31.89;100.00
12801;BME280;6464;42.494;27.470;2023-06-22T15:58:50;100372.50;;;32.18;100.00
12801;BME280;6464;42.494;27.470;2023-06-22T16:01:17;100272.09;;;31.74;100.00
12801;BME280;6464;42.494;27.470;2023-06-22T16:03:45;100245.69;;;31.67;100.00
12801;BME280;6464;42.494;27.470;2023-06-22T16:06:12;100182.16;;;31.27;100.00
12801;BME280;6464;42.494;27.470;2023-06-22T16:08:39;100163.09;;;31.19;100.00
12801;BME280;6464;42.494;27.470;2023-06-22T16:11:06;100159.69;;;31.17;100.00
12801;BME280;6464;42.494;27.470;2023-06-22T16:13:33;100166.53;;;31.52;100.00
12801;BME280;6464;42.494;27.470;2023-06-22T16:16:00;100187.75;;;31.73;100.00
12801;BME280;6464;42.494;27.470;2023-06-22T16:18:27;100174.38;;;31.94;100.00
12801;BME280;6464;42.494;27.470;2023-06-22T16:20:55;100168.50;;;31.74;100.00
12801;BME280;6464;42.494;27.470;2023-06-22T16:23:23;100154.03;;;31.66;100.00
12801;BME280;6464;42.494;27.470;2023-06-22T16:25:50;100147.50;;;31.83;100.00
12801;BME280;6464;42.494;27.470;2023-06-22T16:28:16;100124.47;;;31.55;100.00
12801;BME280;6464;42.494;27.470;2023-06-22T16:30:43;100051.84;;;31.00;100.00
12801;BME280;6464;42.494;27.470;2023-06-22T16:33:10;100086.06;;;30.94;100.00
12801;BME280;6464;42.494;27.470;2023-06-22T16:35:37;100030.88;;;30.36;100.00
12801;BME280;6464;42.494;27.470;2023-06-22T16:38:07;100014.44;;;30.05;100.00
12801;BME280;6464;42.494;27.470;2023-06-22T16:40:34;100020.38;;;30.25;100.00
12801;BME280;6464;42.494;27.470;2023-06-22T16:43:01;100017.47;;;30.10;100.00
12801;BME280;6464;42.494;27.470;2023-06-22T16:45:28;100025.13;;;29.90;100.00
12801;BME280;6464;42.494;27.470;2023-06-22T16:47:58;100009.84;;;29.65;100.00
12801;BME280;6464;42.494;27.470;2023-06-22T16:50:25;100022.28;;;29.25;100.00
12801;BME280;6464;42.494;27.470;2023-06-22T16:52:52;99960.75;;;28.83;100.00
12801;BME280;6464;42.494;27.470;2023-06-22T16:55:21;100019.53;;;29.09;100.00
12801;BME280;6464;42.494;27.470;2023-06-22T16:57:50;100006.16;;;28.73;100.00
12801;BME280;6464;42.494;27.470;2023-06-22T17:00:18;100041.97;;;28.51;100.00
12801;BME280;6464;42.494;27.470;2023-06-22T17:02:48;100039.84;;;28.36;100.00
12801;BME280;6464;42.494;27.470;2023-06-22T17:05:16;100039.44;;;28.31;100.00
12801;BME280;6464;42.494;27.470;2023-06-22T17:07:48;100057.41;;;28.50;100.00
12801;BME280;6464;42.494;27.470;2023-06-22T17:10:17;100070.38;;;28.38;100.00
12801;BME280;6464;42.494;27.470;2023-06-22T17:12:46;100088.50;;;28.20;100.00
12801;BME280;6464;42.494;27.470;2023-06-22T17:15:14;100092.19;;;27.65;100.00
12801;BME280;6464;42.494;27.470;2023-06-22T17:17:41;100117.88;;;27.44;100.00
12801;BME280;6464;42.494;27.470;2023-06-22T17:20:09;100111.66;;;27.33;100.00
12801;BME280;6464;42.494;27.470;2023-06-22T17:22:37;100000.97;;;26.28;100.00